createdAt,value
2023-02-24T00:02:06.119Z,100.00
2023-02-24T00:06:11.862Z,100.00
2023-02-24T00:10:19.244Z,100.00
2023-02-24T00:14:21.430Z,100.00
2023-02-24T00:18:22.875Z,100.00
2023-02-24T00:22:24.340Z,100.00
2023-02-24T00:26:29.528Z,100.00
2023-02-24T00:30:32.841Z,100.00
2023-02-24T00:34:37.473Z,100.00
2023-02-24T00:38:40.763Z,100.00
2023-02-24T00:42:42.628Z,100.00
2023-02-24T00:46:46.905Z,100.00
2023-02-24T00:50:49.193Z,100.00
2023-02-24T00:54:50.896Z,100.00
2023-02-24T00:58:57.409Z,100.00
2023-02-24T01:02:59.410Z,100.00
2023-02-24T01:07:01.589Z,100.00
2023-02-24T01:11:22.582Z,100.00
2023-02-24T01:15:24.660Z,100.00
2023-02-24T01:19:31.825Z,100.00
2023-02-24T01:23:33.608Z,100.00
2023-02-24T01:27:37.126Z,100.00
2023-02-24T01:31:42.700Z,100.00
2023-02-24T01:35:44.367Z,100.00
2023-02-24T01:39:46.373Z,100.00
2023-02-24T01:43:58.641Z,100.00
2023-02-24T01:48:05.235Z,100.00
2023-02-24T01:52:18.047Z,100.00
2023-02-24T01:56:19.501Z,100.00
2023-02-24T02:00:33.014Z,100.00
2023-02-24T02:04:39.553Z,100.00
2023-02-24T02:08:42.617Z,100.00
2023-02-24T02:12:45.512Z,100.00
2023-02-24T02:16:58.909Z,100.00
2023-02-24T02:21:19.729Z,100.00
2023-02-24T02:26:08.811Z,100.00
2023-02-24T02:30:28.357Z,100.00
2023-02-24T02:34:57.368Z,100.00
2023-02-24T02:39:12.229Z,100.00
2023-02-24T02:43:25.788Z,100.00
2023-02-24T02:47:27.243Z,100.00
2023-02-24T02:51:38.673Z,100.00
2023-02-24T02:55:49.410Z,100.00
2023-02-24T02:59:56.980Z,100.00
2023-02-24T03:04:09.141Z,100.00
2023-02-24T03:08:15.378Z,100.00
2023-02-24T03:12:21.378Z,100.00
2023-02-24T03:16:26.596Z,100.00
2023-02-24T03:20:36.761Z,100.00
2023-02-24T03:24:40.030Z,100.00
2023-02-24T03:28:52.544Z,100.00
2023-02-24T03:33:16.637Z,100.00
2023-02-24T03:37:25.722Z,100.00
2023-02-24T03:41:34.619Z,100.00
2023-02-24T03:45:39.365Z,100.00
2023-02-24T03:49:43.600Z,100.00
2023-02-24T03:54:19.558Z,100.00
2023-02-24T03:58:46.967Z,100.00
2023-02-24T04:03:03.321Z,100.00
2023-02-24T04:07:18.545Z,100.00
2023-02-24T04:11:33.912Z,100.00
2023-02-24T04:15:43.735Z,100.00
2023-02-24T04:19:47.988Z,100.00
2023-02-24T04:23:49.817Z,100.00
2023-02-24T04:27:58.421Z,100.00
2023-02-24T04:32:10.322Z,100.00
2023-02-24T04:36:12.880Z,100.00
2023-02-24T04:40:17.718Z,100.00
2023-02-24T04:44:21.594Z,100.00
2023-02-24T04:48:23.061Z,100.00
2023-02-24T04:52:24.514Z,100.00
2023-02-24T04:56:25.933Z,100.00
2023-02-24T05:00:33.345Z,100.00
2023-02-24T05:04:38.782Z,100.00
2023-02-24T05:08:40.492Z,100.00
2023-02-24T05:12:42.677Z,100.00
2023-02-24T05:16:46.024Z,100.00
2023-02-24T05:21:08.537Z,100.00
2023-02-24T05:25:10.803Z,100.00
2023-02-24T05:29:13.150Z,100.00
2023-02-24T05:33:14.933Z,100.00
2023-02-24T05:37:16.432Z,100.00
2023-02-24T05:41:18.722Z,100.00
2023-02-24T05:45:20.304Z,100.00
2023-02-24T05:49:24.329Z,100.00
2023-02-24T05:53:25.822Z,100.00
2023-02-24T05:57:32.796Z,100.00
2023-02-24T06:01:45.796Z,100.00
2023-02-24T06:05:59.168Z,100.00
2023-02-24T06:10:01.922Z,100.00
2023-02-24T06:14:07.078Z,100.00
2023-02-24T06:18:11.541Z,100.00
2023-02-24T06:22:14.833Z,100.00
2023-02-24T06:26:19.360Z,100.00
2023-02-24T06:30:26.931Z,100.00
2023-02-24T06:34:28.428Z,100.00
2023-02-24T06:38:31.469Z,100.00
2023-02-24T06:42:32.963Z,100.00
2023-02-24T06:46:34.431Z,100.00
2023-02-24T06:50:35.870Z,100.00
2023-02-24T06:54:37.914Z,100.00
2023-02-24T06:58:39.359Z,100.00
2023-02-24T07:02:40.799Z,100.00
2023-02-24T07:06:44.914Z,100.00
2023-02-24T07:10:55.894Z,100.00
2023-02-24T07:14:57.398Z,100.00
2023-02-24T07:19:02.578Z,100.00
2023-02-24T07:23:04.000Z,100.00
2023-02-24T07:27:12.560Z,100.00
2023-02-24T07:31:21.217Z,100.00
2023-02-24T07:35:23.893Z,100.00
2023-02-24T07:39:25.870Z,100.00
2023-02-24T07:43:27.343Z,100.00
2023-02-24T07:47:29.516Z,100.00
2023-02-24T07:51:31.047Z,100.00
2023-02-24T07:55:35.910Z,100.00
2023-02-24T07:59:38.067Z,100.00
2023-02-24T08:03:41.479Z,100.00
2023-02-24T08:07:42.951Z,100.00
2023-02-24T08:11:52.223Z,100.00
2023-02-24T08:15:56.506Z,100.00
2023-02-24T08:20:12.806Z,100.00
2023-02-24T08:24:17.614Z,100.00
2023-02-24T08:28:19.152Z,100.00
2023-02-24T08:32:24.199Z,100.00
2023-02-24T08:36:26.048Z,100.00
2023-02-24T08:40:33.556Z,100.00
2023-02-24T08:44:37.124Z,100.00
2023-02-24T08:48:50.468Z,100.00
2023-02-24T08:52:51.934Z,100.00
2023-02-24T08:56:58.330Z,100.00
2023-02-24T09:00:59.810Z,100.00
2023-02-24T09:05:07.506Z,100.00
2023-02-24T09:09:20.731Z,100.00
2023-02-24T09:13:22.185Z,100.00
2023-02-24T09:17:49.824Z,100.00
2023-02-24T09:22:21.291Z,100.00
2023-02-24T09:26:23.091Z,100.00
2023-02-24T09:30:36.429Z,100.00
2023-02-24T09:34:45.562Z,100.00
2023-02-24T09:38:59.444Z,99.41
2023-02-24T09:43:10.964Z,98.82
2023-02-24T09:47:31.235Z,98.87
2023-02-24T09:51:42.222Z,96.48
2023-02-24T09:56:05.663Z,94.76
2023-02-24T10:00:33.409Z,95.40
2023-02-24T10:04:48.937Z,96.41
2023-02-24T10:09:11.432Z,93.96
2023-02-24T10:13:30.318Z,91.73
2023-02-24T10:17:40.227Z,95.06
2023-02-24T10:22:02.990Z,88.54
2023-02-24T10:26:51.314Z,89.02
2023-02-24T10:31:25.417Z,90.40
2023-02-24T10:35:33.680Z,89.26
2023-02-24T10:39:35.325Z,91.64
2023-02-24T10:43:45.440Z,89.25
2023-02-24T10:48:07.307Z,88.04
2023-02-24T10:52:36.481Z,88.49
2023-02-24T10:56:44.632Z,88.28
2023-02-24T11:01:00.814Z,90.84
2023-02-24T11:05:27.023Z,95.88
2023-02-24T11:09:28.524Z,100.00
2023-02-24T11:13:48.598Z,100.00
2023-02-24T11:17:58.243Z,100.00
2023-02-24T11:22:02.092Z,100.00
2023-02-24T11:26:09.981Z,100.00
2023-02-24T11:30:29.505Z,100.00
2023-02-24T11:34:55.512Z,100.00
2023-02-24T11:39:17.809Z,100.00
2023-02-24T11:43:28.257Z,100.00
2023-02-24T11:47:41.151Z,100.00
2023-02-24T11:51:44.626Z,100.00
2023-02-24T11:55:51.330Z,100.00
2023-02-24T12:00:05.555Z,100.00
2023-02-24T12:04:25.308Z,100.00
2023-02-24T12:08:34.847Z,100.00
2023-02-24T12:12:51.685Z,100.00
2023-02-24T12:17:01.104Z,100.00
2023-02-24T12:21:11.964Z,100.00
2023-02-24T12:25:14.931Z,100.00
2023-02-24T12:29:55.123Z,100.00
2023-02-24T12:34:23.308Z,100.00
2023-02-24T12:38:48.691Z,100.00
2023-02-24T12:43:24.149Z,100.00
2023-02-24T12:47:42.942Z,100.00
2023-02-24T12:51:51.114Z,100.00
2023-02-24T12:56:06.217Z,100.00
2023-02-24T13:00:24.562Z,100.00
2023-02-24T13:04:58.829Z,100.00
2023-02-24T13:09:20.733Z,100.00
2023-02-24T13:13:40.832Z,100.00
2023-02-24T13:17:53.390Z,100.00
2023-02-24T13:22:13.221Z,100.00
2023-02-24T13:26:23.367Z,100.00
2023-02-24T13:30:41.551Z,100.00
2023-02-24T13:34:45.056Z,100.00
2023-02-24T13:38:49.061Z,100.00
2023-02-24T13:42:56.536Z,100.00
2023-02-24T13:47:42.157Z,100.00
2023-02-24T13:51:59.174Z,100.00
2023-02-24T13:56:06.469Z,100.00
2023-02-24T14:00:21.861Z,100.00
2023-02-24T14:04:36.012Z,100.00
2023-02-24T14:08:45.728Z,100.00
2023-02-24T14:12:49.456Z,100.00
2023-02-24T14:16:51.624Z,100.00
2023-02-24T14:20:54.615Z,100.00
2023-02-24T14:25:05.974Z,100.00
2023-02-24T14:29:08.615Z,100.00
2023-02-24T14:33:25.771Z,100.00
2023-02-24T14:37:30.774Z,100.00
2023-02-24T14:41:32.220Z,100.00
2023-02-24T14:45:33.709Z,100.00
2023-02-24T14:49:36.124Z,100.00
2023-02-24T14:53:50.766Z,100.00
2023-02-24T14:57:58.733Z,100.00
2023-02-24T15:02:02.790Z,100.00
2023-02-24T15:06:13.148Z,100.00
2023-02-24T15:10:32.744Z,100.00
2023-02-24T15:14:34.435Z,100.00
2023-02-24T15:18:36.080Z,100.00
2023-02-24T15:22:50.106Z,100.00
2023-02-24T15:27:17.980Z,100.00
2023-02-24T15:31:21.302Z,100.00
2023-02-24T15:35:24.816Z,100.00
2023-02-24T15:39:31.043Z,100.00
2023-02-24T15:43:38.205Z,100.00
2023-02-24T15:47:44.989Z,100.00
2023-02-24T15:51:49.300Z,100.00
2023-02-24T15:55:51.395Z,100.00
2023-02-24T15:59:52.837Z,100.00
2023-02-24T16:03:54.391Z,100.00
2023-02-24T16:07:55.993Z,100.00
2023-02-24T16:11:58.980Z,100.00
2023-02-24T16:16:00.460Z,100.00
2023-02-24T16:20:02.776Z,100.00
2023-02-24T16:24:04.375Z,100.00
2023-02-24T16:28:05.959Z,100.00
2023-02-24T16:32:11.212Z,100.00
2023-02-24T16:36:14.054Z,100.00
2023-02-24T16:40:30.580Z,100.00
2023-02-24T16:44:32.231Z,100.00
2023-02-24T16:48:37.489Z,100.00
2023-02-24T16:52:38.919Z,100.00
2023-02-24T16:56:40.454Z,100.00
2023-02-24T17:00:45.761Z,100.00
2023-02-24T17:04:47.660Z,100.00
2023-02-24T17:08:49.653Z,100.00
2023-02-24T17:12:52.023Z,100.00
2023-02-24T17:16:53.492Z,100.00
2023-02-24T17:20:55.034Z,100.00
2023-02-24T17:24:56.477Z,100.00
2023-02-24T17:28:57.911Z,100.00
2023-02-24T17:32:59.745Z,100.00
2023-02-24T17:37:01.206Z,100.00
2023-02-24T17:41:02.741Z,100.00
2023-02-24T17:45:05.683Z,100.00
2023-02-24T17:49:07.531Z,100.00
2023-02-24T17:53:09.024Z,100.00
2023-02-24T17:57:10.756Z,100.00
2023-02-24T18:01:12.268Z,100.00
2023-02-24T18:05:13.715Z,100.00
2023-02-24T18:09:15.351Z,100.00
2023-02-24T18:13:19.784Z,100.00
2023-02-24T18:17:21.313Z,100.00
2023-02-24T18:21:23.182Z,100.00
2023-02-24T18:25:24.659Z,100.00
2023-02-24T18:29:26.075Z,100.00
2023-02-24T18:33:27.766Z,100.00
2023-02-24T18:37:29.276Z,100.00
2023-02-24T18:41:30.865Z,100.00
2023-02-24T18:45:32.568Z,100.00
2023-02-24T18:49:34.069Z,100.00
2023-02-24T18:53:36.774Z,100.00
2023-02-24T18:57:38.329Z,100.00
2023-02-24T19:01:40.296Z,100.00
2023-02-24T19:05:41.799Z,100.00
2023-02-24T19:09:43.573Z,100.00
2023-02-24T19:13:49.123Z,100.00
2023-02-24T19:17:50.536Z,100.00
2023-02-24T19:21:52.010Z,100.00
2023-02-24T19:25:53.722Z,100.00
2023-02-24T19:29:55.269Z,100.00
2023-02-24T19:34:02.059Z,100.00
2023-02-24T19:38:03.590Z,100.00
2023-02-24T19:42:06.721Z,100.00
2023-02-24T19:46:11.622Z,100.00
2023-02-24T19:50:15.090Z,100.00
2023-02-24T19:54:16.788Z,100.00
2023-02-24T19:58:18.188Z,100.00
2023-02-24T20:02:19.677Z,100.00
2023-02-24T20:06:25.670Z,100.00
2023-02-24T20:10:27.259Z,100.00
2023-02-24T20:14:29.722Z,100.00
2023-02-24T20:18:31.324Z,100.00
2023-02-24T20:22:32.774Z,100.00
2023-02-24T20:26:36.015Z,100.00
2023-02-24T20:30:37.495Z,100.00
2023-02-24T20:34:39.102Z,100.00
2023-02-24T20:38:40.811Z,100.00
2023-02-24T20:42:42.277Z,100.00
2023-02-24T20:46:43.977Z,100.00
2023-02-24T20:50:45.497Z,100.00
2023-02-24T20:54:46.979Z,100.00
2023-02-24T20:58:50.386Z,100.00
2023-02-24T21:02:52.309Z,100.00
2023-02-24T21:06:54.305Z,100.00
2023-02-24T21:10:55.857Z,100.00
2023-02-24T21:14:57.356Z,100.00
2023-02-24T21:18:58.892Z,100.00
2023-02-24T21:23:00.513Z,100.00
2023-02-24T21:27:02.003Z,100.00
2023-02-24T21:31:11.917Z,100.00
2023-02-24T21:35:13.470Z,100.00
2023-02-24T21:39:15.105Z,100.00
2023-02-24T21:43:17.757Z,100.00
2023-02-24T21:47:20.397Z,100.00
2023-02-24T21:51:24.672Z,100.00
2023-02-24T21:55:26.282Z,100.00
2023-02-24T21:59:27.743Z,100.00
2023-02-24T22:03:29.276Z,100.00
2023-02-24T22:07:30.876Z,100.00
2023-02-24T22:11:37.859Z,100.00
2023-02-24T22:15:39.478Z,100.00
2023-02-24T22:19:41.001Z,100.00
2023-02-24T22:23:43.102Z,100.00
2023-02-24T22:27:44.572Z,100.00
2023-02-24T22:31:49.469Z,100.00
2023-02-24T22:35:51.338Z,100.00
2023-02-24T22:39:53.807Z,100.00
2023-02-24T22:43:55.274Z,100.00
2023-02-24T22:47:56.814Z,100.00
2023-02-24T22:51:58.261Z,100.00
2023-02-24T22:55:59.754Z,100.00
2023-02-24T23:00:01.184Z,100.00
2023-02-24T23:04:05.509Z,100.00
2023-02-24T23:08:08.249Z,100.00
2023-02-24T23:12:11.722Z,100.00
2023-02-24T23:16:18.442Z,100.00
2023-02-24T23:20:20.498Z,100.00
2023-02-24T23:24:22.172Z,100.00
2023-02-24T23:28:27.513Z,100.00
2023-02-24T23:32:29.199Z,100.00
2023-02-24T23:36:30.917Z,100.00
2023-02-24T23:40:44.379Z,100.00
2023-02-24T23:44:50.939Z,100.00
2023-02-24T23:48:53.910Z,100.00
2023-02-24T23:52:55.396Z,100.00
2023-02-24T23:56:56.863Z,100.00
